Time;durP1;ratioP1;P1;durP2;ratioP2;P2;SDS_P1;SDS_P2;PMS_P1;PMS_P2;Temp;Humidity;BMP_temperature;BMP_pressure;BME280_temperature;BME280_humidity;BME280_pressure;Samples;Min_cycle;Max_cycle;Signal;HPM_P1;HPM_P2
2022/12/02 00:01:00;;;;;;;;;;;;;;;;;;5113673;28;975;-65
2022/12/02 00:03:25;;;;;;;;;;;;;;;;;;5112883;28;1951;-66
2022/12/02 00:05:54;;;;;;;;;;;;;;;;;;5095327;28;1456;-65
2022/12/02 00:08:20;;;;;;;;;;;;;;;;;;5113067;28;800;-66
2022/12/02 00:10:47;;;;;;;;;;;;;;;;;;5112052;28;1209;-66
2022/12/02 00:13:21;;;;;;;;;;;;;;;;;;5111761;28;872;-66
2022/12/02 00:15:48;;;;;;;;;;;;;;;;;;5113227;28;908;-66
2022/12/02 00:18:15;;;;;;;;;;;;;;;;;;5111179;28;1320;-66
2022/12/02 00:20:40;;;;;;;;;;;;;;;;;;5111802;28;1166;-66
2022/12/02 00:23:06;;;;;;;;;;;;;;;;;;5111210;28;1890;-66
2022/12/02 00:25:32;;;;;;;;;;;;;;;;;;5112867;28;982;-66
2022/12/02 00:27:57;;;;;;;;;;;;;;;;;;5113067;28;907;-66
2022/12/02 00:30:22;;;;;;;;;;;;;;;;;;5112934;28;962;-66
2022/12/02 00:32:48;;;;;;;;;;;;;;;;;;5112884;28;850;-66
2022/12/02 00:35:14;;;;;;;;;;;;;;;;;;5113545;28;1058;-66
2022/12/02 00:37:39;;;;;;;;;;;;;;;;;;5112770;28;1180;-66
2022/12/02 00:40:05;;;;;;;;;;;;;;;;;;5112176;28;1158;-65
2022/12/02 00:42:30;;;;;;;;;;;;;;;;;;5112753;28;1967;-66
2022/12/02 00:47:39;;;;;;;;;;;;;;;;;;5112450;28;635;-66
2022/12/02 00:50:04;;;;;;;;;;;;;;;;;;5110997;28;1232;-65
2022/12/02 00:52:30;;;;;;;;;;;;;;;;;;5110768;28;1284;-66
2022/12/02 00:54:55;;;;;;;;;;;;;;;;;;5112393;28;832;-66
2022/12/02 00:57:20;;;;;;;;;;;;;;;;;;5110046;28;1242;-66
2022/12/02 00:59:45;;;;;;;;;;;;;;;;;;5111542;28;1242;-66
2022/12/02 01:02:11;;;;;;;;;;;;;;;;;;5110728;28;1404;-66
2022/12/02 01:04:36;;;;;;;;;;;;;;;;;;5110893;28;1963;-66
2022/12/02 01:07:01;;;;;;;;;;;;;;;;;;5112548;28;1069;-67
2022/12/02 01:09:27;;;;;;;;;;;;;;;;;;5110490;28;825;-67
2022/12/02 01:11:52;;;;;;;;;;;;;;;;;;5112274;28;852;-67
2022/12/02 01:14:17;;;;;;;;;;;;;;;;;;5111713;28;986;-66
2022/12/02 01:16:42;;;;;;;;;;;;;;;;;;5112101;28;959;-66
2022/12/02 01:19:08;;;;;;;;;;;;;;;;;;5093954;28;1248;-67
2022/12/02 01:21:33;;;;;;;;;;;;;;;;;;5110353;28;1260;-66
2022/12/02 01:23:58;;;;;;;;;;;;;;;;;;5110002;28;1906;-66
2022/12/02 01:26:23;;;;;;;;;;;;;;;;;;5110168;28;746;-66
2022/12/02 01:28:49;;;;;;;;;;;;;;;;;;5112461;28;934;-66
2022/12/02 01:31:14;;;;;;;;;;;;;;;;;;5093117;28;1224;-66
2022/12/02 01:33:40;;;;;;;;;;;;;;;;;;5111991;28;998;-66
2022/12/02 01:36:05;;;;;;;;;;;;;;;;;;5111770;28;891;-65
2022/12/02 01:38:31;;;;;;;;;;;;;;;;;;5111013;28;815;-65
2022/12/02 01:40:56;;;;;;;;;;;;;;;;;;5093455;28;1296;-65
2022/12/02 01:43:21;;;;;;;;;;;;;;;;;;5110843;28;1974;-65
2022/12/02 01:45:46;;;;;;;;;;;;;;;;;;5111502;28;907;-65
2022/12/02 01:48:12;;;;;;;;;;;;;;;;;;5109849;28;1160;-65
2022/12/02 01:50:38;;;;;;;;;;;;;;;;;;5093554;28;1332;-66
2022/12/02 01:53:04;;;;;;;;;;;;;;;;;;5111637;28;952;-66
2022/12/02 01:55:29;;;;;;;;;;;;;;;;;;5111497;28;836;-66
2022/12/02 01:57:56;;;;;;;;;;;;;;;;;;5094738;28;1412;-66
2022/12/02 02:00:21;;;;;;;;;;;;;;;;;;5111850;28;876;-66
2022/12/02 02:02:46;;;;;;;;;;;;;;;;;;5111081;28;1984;-66
2022/12/02 02:05:19;;;;;;;;;;;;;;;;;;5110932;28;793;-67
2022/12/02 02:07:46;;;;;;;;;;;;;;;;;;5110992;28;1174;-66
2022/12/02 02:10:12;;;;;;;;;;;;;;;;;;5112169;28;891;-66
2022/12/02 02:12:37;;;;;;;;;;;;;;;;;;5111060;28;1372;-66
2022/12/02 02:15:04;;;;;;;;;;;;;;;;;;5094075;28;1310;-66
2022/12/02 02:17:29;;;;;;;;;;;;;;;;;;5110391;28;1335;-65
2022/12/02 02:19:55;;;;;;;;;;;;;;;;;;5111520;28;994;-66
2022/12/02 02:22:23;;;;;;;;;;;;;;;;;;5110826;28;916;-66
2022/12/02 02:24:48;;;;;;;;;;;;;;;;;;5109614;28;1897;-66
2022/12/02 02:27:14;;;;;;;;;;;;;;;;;;5109662;28;919;-65
2022/12/02 02:29:39;;;;;;;;;;;;;;;;;;5109572;28;900;-66
2022/12/02 02:32:04;;;;;;;;;;;;;;;;;;5109677;28;951;-66
2022/12/02 02:34:30;;;;;;;;;;;;;;;;;;5108820;28;883;-66
2022/12/02 02:36:55;;;;;;;;;;;;;;;;;;5111000;28;820;-66
2022/12/02 02:39:21;;;;;;;;;;;;;;;;;;5111022;28;871;-66
2022/12/02 02:41:47;;;;;;;;;;;;;;;;;;5106917;28;1293;-66
2022/12/02 02:44:12;;;;;;;;;;;;;;;;;;5108381;28;1902;-66
2022/12/02 02:46:38;;;;;;;;;;;;;;;;;;5084408;28;1209;-66
2022/12/02 02:49:03;;;;;;;;;;;;;;;;;;5090379;28;1206;-66
2022/12/02 02:51:28;;;;;;;;;;;;;;;;;;5091589;28;1401;-66
2022/12/02 02:53:54;;;;;;;;;;;;;;;;;;5109513;28;1335;-65
2022/12/02 02:56:19;;;;;;;;;;;;;;;;;;5108880;28;801;-65
2022/12/02 02:58:44;;;;;;;;;;;;;;;;;;5108968;28;1296;-65
2022/12/02 03:01:10;;;;;;;;;;;;;;;;;;5110896;28;958;-66
2022/12/02 03:03:39;;;;;;;;;;;;;;;;;;5110593;28;1951;-66
2022/12/02 03:06:06;;;;;;;;;;;;;;;;;;5109615;28;1217;-65
2022/12/02 03:08:32;;;;;;;;;;;;;;;;;;5108682;28;1536;-66
2022/12/02 03:10:59;;;;;;;;;;;;;;;;;;5110724;28;931;-65
2022/12/02 03:13:24;;;;;;;;;;;;;;;;;;5110464;28;884;-66
2022/12/02 03:15:50;;;;;;;;;;;;;;;;;;5110730;28;817;-65
2022/12/02 03:18:15;;;;;;;;;;;;;;;;;;5109889;28;987;-64
2022/12/02 03:20:41;;;;;;;;;;;;;;;;;;5110568;28;812;-66
2022/12/02 03:23:06;;;;;;;;;;;;;;;;;;5110584;28;1906;-66
2022/12/02 03:25:31;;;;;;;;;;;;;;;;;;5109824;28;942;-66
2022/12/02 03:27:57;;;;;;;;;;;;;;;;;;5110574;28;891;-66
2022/12/02 03:30:22;;;;;;;;;;;;;;;;;;5109165;28;1321;-65
2022/12/02 03:32:47;;;;;;;;;;;;;;;;;;5110032;28;879;-65
2022/12/02 03:35:13;;;;;;;;;;;;;;;;;;5110582;28;970;-66
2022/12/02 03:37:38;;;;;;;;;;;;;;;;;;5110542;28;931;-66
2022/12/02 03:40:04;;;;;;;;;;;;;;;;;;5092851;28;840;-66
2022/12/02 03:42:29;;;;;;;;;;;;;;;;;;5110625;28;883;-66
2022/12/02 03:44:55;;;;;;;;;;;;;;;;;;5109670;28;1906;-66
2022/12/02 03:47:20;;;;;;;;;;;;;;;;;;5111077;28;1483;-66
2022/12/02 03:49:45;;;;;;;;;;;;;;;;;;5113650;28;1098;-65
2022/12/02 03:52:11;;;;;;;;;;;;;;;;;;5114138;28;927;-65
2022/12/02 03:54:37;;;;;;;;;;;;;;;;;;5112319;28;1059;-66
2022/12/02 03:57:06;;;;;;;;;;;;;;;;;;5112443;28;1265;-66
2022/12/02 03:59:31;;;;;;;;;;;;;;;;;;5111703;28;1040;-66
2022/12/02 04:01:56;;;;;;;;;;;;;;;;;;5114092;28;931;-65
2022/12/02 04:04:22;;;;;;;;;;;;;;;;;;5113497;28;1979;-66
2022/12/02 04:06:47;;;;;;;;;;;;;;;;;;5113641;28;915;-66
2022/12/02 04:09:12;;;;;;;;;;;;;;;;;;5111905;28;1218;-66
2022/12/02 04:11:38;;;;;;;;;;;;;;;;;;5111881;28;1530;-65
2022/12/02 04:14:03;;;;;;;;;;;;;;;;;;5095316;28;1333;-66
2022/12/02 04:16:28;;;;;;;;;;;;;;;;;;5113298;28;982;-66
2022/12/02 04:18:53;;;;;;;;;;;;;;;;;;5113086;28;816;-66
2022/12/02 04:21:20;;;;;;;;;;;;;;;;;;5094901;28;1171;-66
2022/12/02 04:23:45;;;;;;;;;;;;;;;;;;5111765;28;1905;-66
2022/12/02 04:26:11;;;;;;;;;;;;;;;;;;5112234;28;1293;-66
2022/12/02 04:28:36;;;;;;;;;;;;;;;;;;5111438;28;892;-66
2022/12/02 04:31:01;;;;;;;;;;;;;;;;;;5111757;28;1308;-66
2022/12/02 04:33:27;;;;;;;;;;;;;;;;;;5112776;28;844;-66
2022/12/02 04:35:52;;;;;;;;;;;;;;;;;;5113066;28;931;-66
2022/12/02 04:38:17;;;;;;;;;;;;;;;;;;5111652;28;833;-66
2022/12/02 04:40:42;;;;;;;;;;;;;;;;;;5113108;28;750;-66
2022/12/02 04:43:08;;;;;;;;;;;;;;;;;;5095040;28;1922;-66
2022/12/02 04:45:33;;;;;;;;;;;;;;;;;;5111053;28;1112;-66
2022/12/02 04:47:58;;;;;;;;;;;;;;;;;;5113594;28;819;-66
2022/12/02 04:50:23;;;;;;;;;;;;;;;;;;5112541;28;915;-66
2022/12/02 04:52:49;;;;;;;;;;;;;;;;;;5111559;28;927;-66
2022/12/02 04:55:14;;;;;;;;;;;;;;;;;;5113010;28;943;-66
2022/12/02 04:57:39;;;;;;;;;;;;;;;;;;5096696;28;1206;-66
2022/12/02 05:00:06;;;;;;;;;;;;;;;;;;5096863;28;1196;-66
2022/12/02 05:02:32;;;;;;;;;;;;;;;;;;5112663;28;1329;-65
2022/12/02 05:04:57;;;;;;;;;;;;;;;;;;5112437;28;1893;-66
2022/12/02 05:07:22;;;;;;;;;;;;;;;;;;5113039;28;947;-66
2022/12/02 05:09:47;;;;;;;;;;;;;;;;;;5112260;28;1186;-66
2022/12/02 05:12:13;;;;;;;;;;;;;;;;;;5112945;28;884;-65
2022/12/02 05:14:38;;;;;;;;;;;;;;;;;;5111941;28;860;-65
2022/12/02 05:17:03;;;;;;;;;;;;;;;;;;5110436;28;1320;-65
2022/12/02 05:19:28;;;;;;;;;;;;;;;;;;5110597;28;1171;-65
2022/12/02 05:21:54;;;;;;;;;;;;;;;;;;5111859;28;905;-65
2022/12/02 05:24:19;;;;;;;;;;;;;;;;;;5109799;28;1980;-65
2022/12/02 05:26:44;;;;;;;;;;;;;;;;;;5110207;28;1217;-64
2022/12/02 05:29:10;;;;;;;;;;;;;;;;;;5112137;28;879;-65
2022/12/02 05:31:35;;;;;;;;;;;;;;;;;;5110255;28;875;-65
2022/12/02 05:34:00;;;;;;;;;;;;;;;;;;5109455;28;1134;-65
2022/12/02 05:36:25;;;;;;;;;;;;;;;;;;5108757;28;1178;-66
2022/12/02 05:38:51;;;;;;;;;;;;;;;;;;5092408;28;1276;-66
2022/12/02 05:41:16;;;;;;;;;;;;;;;;;;5094178;28;1202;-66
2022/12/02 05:43:42;;;;;;;;;;;;;;;;;;5091516;28;1973;-66
2022/12/02 05:46:18;;;;;;;;;;;;;;;;;;5073473;28;1340;-66
2022/12/02 05:48:44;;;;;;;;;;;;;;;;;;5089849;28;1317;-66
2022/12/02 05:51:13;;;;;;;;;;;;;;;;;;5091370;28;919;-66
2022/12/02 05:53:40;;;;;;;;;;;;;;;;;;5090519;28;1033;-66
2022/12/02 05:56:09;;;;;;;;;;;;;;;;;;5091201;28;912;-66
2022/12/02 05:58:34;;;;;;;;;;;;;;;;;;5090783;28;920;-66
2022/12/02 06:00:59;;;;;;;;;;;;;;;;;;5089723;28;920;-66
2022/12/02 06:03:25;;;;;;;;;;;;;;;;;;5089592;28;1960;-66
2022/12/02 06:05:54;;;;;;;;;;;;;;;;;;5090788;28;955;-66
2022/12/02 06:08:26;;;;;;;;;;;;;;;;;;5090148;28;828;-66
2022/12/02 06:10:56;;;;;;;;;;;;;;;;;;5090381;28;912;-66
2022/12/02 06:13:25;;;;;;;;;;;;;;;;;;5089271;28;1328;-66
2022/12/02 06:15:51;;;;;;;;;;;;;;;;;;5091024;28;895;-66
2022/12/02 06:18:18;;;;;;;;;;;;;;;;;;5089362;28;1140;-66
2022/12/02 06:20:44;;;;;;;;;;;;;;;;;;5091008;28;1003;-66
2022/12/02 06:23:12;;;;;;;;;;;;;;;;;;5090500;28;1926;-66
2022/12/02 06:25:37;;;;;;;;;;;;;;;;;;5090677;28;951;-66
2022/12/02 06:28:20;;;;;;;;;;;;;;;;;;5090746;28;986;-66
2022/12/02 06:30:46;;;;;;;;;;;;;;;;;;5089539;28;1166;-66
2022/12/02 06:33:16;;;;;;;;;;;;;;;;;;5091342;28;955;-66
2022/12/02 06:35:41;;;;;;;;;;;;;;;;;;5089833;28;1431;-66
2022/12/02 06:38:14;;;;;;;;;;;;;;;;;;5089884;28;1226;-65
2022/12/02 06:40:40;;;;;;;;;;;;;;;;;;5091678;28;1056;-65
2022/12/02 06:43:13;;;;;;;;;;;;;;;;;;5090304;28;1910;-65
2022/12/02 06:45:39;;;;;;;;;;;;;;;;;;5092178;28;859;-66
2022/12/02 06:48:13;;;;;;;;;;;;;;;;;;5090088;28;1114;-66
2022/12/02 06:50:44;;;;;;;;;;;;;;;;;;5090240;28;1167;-65
2022/12/02 06:53:22;;;;;;;;;;;;;;;;;;5090289;28;1309;-66
2022/12/02 06:55:48;;;;;;;;;;;;;;;;;;5091333;28;832;-66
2022/12/02 06:58:22;;;;;;;;;;;;;;;;;;5122752;27;1184;-66
2022/12/02 07:00:48;;;;;;;;;;;;;;;;;;5089890;28;902;-66
2022/12/02 07:03:30;;;;;;;;;;;;;;;;;;5090312;28;1905;-66
2022/12/02 07:06:13;;;;;;;;;;;;;;;;;;5088886;28;1461;-66
2022/12/02 07:08:39;;;;;;;;;;;;;;;;;;5090176;28;824;-67
2022/12/02 07:11:14;;;;;;;;;;;;;;;;;;5088940;28;935;-67
2022/12/02 07:13:39;;;;;;;;;;;;;;;;;;5089847;28;774;-67
2022/12/02 07:16:24;;;;;;;;;;;;;;;;;;5071789;28;1167;-67
2022/12/02 07:18:50;;;;;;;;;;;;;;;;;;5089792;28;1109;-67
2022/12/02 07:21:16;;;;;;;;;;;;;;;;;;5089919;28;918;-68
2022/12/02 07:23:41;;;;;;;;;;;;;;;;;;5092973;28;1898;-68
2022/12/02 07:26:07;;;;;;;;;;;;;;;;;;5093978;28;892;-68
2022/12/02 07:28:34;;;;;;;;;;;;;;;;;;5091878;28;943;-68
2022/12/02 07:31:09;;;;;;;;;;;;;;;;;;5093562;28;848;-68
2022/12/02 07:33:34;;;;;;;;;;;;;;;;;;5093003;28;1034;-68
2022/12/02 07:35:59;;;;;;;;;;;;;;;;;;5091817;28;1280;-67
2022/12/02 07:38:25;;;;;;;;;;;;;;;;;;5091490;28;1227;-67
2022/12/02 07:40:50;;;;;;;;;;;;;;;;;;5093232;28;1007;-67
2022/12/02 07:43:15;;;;;;;;;;;;;;;;;;5094332;28;1913;-68
2022/12/02 07:45:40;;;;;;;;;;;;;;;;;;5094242;28;789;-67
2022/12/02 07:48:06;;;;;;;;;;;;;;;;;;5091879;28;947;-67
2022/12/02 07:50:31;;;;;;;;;;;;;;;;;;5092389;28;1099;-68
2022/12/02 07:52:56;;;;;;;;;;;;;;;;;;5093265;28;1049;-68
2022/12/02 07:55:22;;;;;;;;;;;;;;;;;;5091130;28;1289;-68
2022/12/02 07:57:47;;;;;;;;;;;;;;;;;;5093242;28;892;-67
2022/12/02 08:00:12;;;;;;;;;;;;;;;;;;5093300;28;844;-67
2022/12/02 08:02:38;;;;;;;;;;;;;;;;;;5091649;28;955;-67
2022/12/02 08:05:04;;;;;;;;;;;;;;;;;;5091350;28;1901;-67
2022/12/02 08:07:29;;;;;;;;;;;;;;;;;;5092643;28;911;-67
2022/12/02 08:09:54;;;;;;;;;;;;;;;;;;5093522;28;923;-67
2022/12/02 08:12:20;;;;;;;;;;;;;;;;;;5092949;28;829;-67
2022/12/02 08:14:45;;;;;;;;;;;;;;;;;;5093105;28;880;-67
2022/12/02 08:17:11;;;;;;;;;;;;;;;;;;5092996;28;927;-67
2022/12/02 08:19:36;;;;;;;;;;;;;;;;;;5091906;28;1210;-67
2022/12/02 08:22:01;;;;;;;;;;;;;;;;;;5094011;28;896;-67
2022/12/02 08:24:27;;;;;;;;;;;;;;;;;;5091942;28;1962;-67
2022/12/02 08:26:52;;;;;;;;;;;;;;;;;;5094461;28;904;-66
2022/12/02 08:29:17;;;;;;;;;;;;;;;;;;5093556;28;866;-66
2022/12/02 08:31:43;;;;;;;;;;;;;;;;;;5092275;28;1219;-66
2022/12/02 08:34:08;;;;;;;;;;;;;;;;;;5075416;28;1375;-68
2022/12/02 08:36:33;;;;;;;;;;;;;;;;;;5092355;28;1246;-68
2022/12/02 08:39:01;;;;;;;;;;;;;;;;;;5091293;28;1204;-68
2022/12/02 08:41:26;;;;;;;;;;;;;;;;;;5105068;28;1207;-68
2022/12/02 08:43:52;;;;;;;;;;;;;;;;;;5093109;28;1910;-67
2022/12/02 08:46:17;;;;;;;;;;;;;;;;;;5090687;28;988;-68
2022/12/02 08:48:42;;;;;;;;;;;;;;;;;;5090494;28;903;-68
2022/12/02 08:51:07;;;;;;;;;;;;;;;;;;5090797;28;1331;-66
2022/12/02 08:53:33;;;;;;;;;;;;;;;;;;5091934;28;943;-68
2022/12/02 08:55:58;;;;;;;;;;;;;;;;;;5090190;28;1293;-66
2022/12/02 08:58:23;;;;;;;;;;;;;;;;;;5090184;28;1115;-66
2022/12/02 09:00:49;;;;;;;;;;;;;;;;;;5092236;28;837;-67
2022/12/02 09:03:14;;;;;;;;;;;;;;;;;;5090481;28;1909;-66
2022/12/02 09:05:40;;;;;;;;;;;;;;;;;;5072244;28;1483;-66
2022/12/02 09:08:06;;;;;;;;;;;;;;;;;;5090291;28;1463;-67
2022/12/02 09:10:31;;;;;;;;;;;;;;;;;;5089958;28;1194;-67
2022/12/02 09:12:56;;;;;;;;;;;;;;;;;;5090621;28;1179;-66
2022/12/02 09:15:22;;;;;;;;;;;;;;;;;;5091095;28;848;-66
2022/12/02 09:17:48;;;;;;;;;;;;;;;;;;5073412;28;1206;-67
2022/12/02 09:20:13;;;;;;;;;;;;;;;;;;5090031;28;820;-66
2022/12/02 09:22:39;;;;;;;;;;;;;;;;;;5090938;28;897;-67
2022/12/02 09:25:04;;;;;;;;;;;;;;;;;;5090831;28;1901;-66
2022/12/02 09:27:30;;;;;;;;;;;;;;;;;;5089993;28;853;-66
2022/12/02 09:29:55;;;;;;;;;;;;;;;;;;5073366;28;1276;-66
2022/12/02 09:32:20;;;;;;;;;;;;;;;;;;5090719;28;974;-66
2022/12/02 09:34:46;;;;;;;;;;;;;;;;;;5090671;28;903;-66
2022/12/02 09:37:11;;;;;;;;;;;;;;;;;;5090907;28;825;-66
2022/12/02 09:39:36;;;;;;;;;;;;;;;;;;5090956;28;1007;-67
2022/12/02 09:42:01;;;;;;;;;;;;;;;;;;5091342;28;808;-66
2022/12/02 09:44:27;;;;;;;;;;;;;;;;;;5087986;28;1976;-66
2022/12/02 09:46:52;;;;;;;;;;;;;;;;;;5090920;28;919;-66
2022/12/02 09:49:17;;;;;;;;;;;;;;;;;;5090593;28;987;-67
2022/12/02 09:51:43;;;;;;;;;;;;;;;;;;5088740;28;1218;-66
2022/12/02 09:54:10;;;;;;;;;;;;;;;;;;5073275;28;1214;-66
2022/12/02 09:56:36;;;;;;;;;;;;;;;;;;5090067;28;1139;-66
2022/12/02 09:59:05;;;;;;;;;;;;;;;;;;5092471;28;774;-66
2022/12/02 10:01:31;;;;;;;;;;;;;;;;;;5090374;28;1176;-66
2022/12/02 10:03:56;;;;;;;;;;;;;;;;;;5092081;28;1910;-67
2022/12/02 10:06:23;;;;;;;;;;;;;;;;;;5091226;28;872;-66
2022/12/02 10:08:49;;;;;;;;;;;;;;;;;;5091024;28;841;-67
2022/12/02 10:11:28;;;;;;;;;;;;;;;;;;5072476;28;1303;-67
2022/12/02 10:13:55;;;;;;;;;;;;;;;;;;5089975;28;1210;-67
2022/12/02 10:16:20;;;;;;;;;;;;;;;;;;5090650;28;880;-66
2022/12/02 10:18:46;;;;;;;;;;;;;;;;;;5089286;28;1087;-67
2022/12/02 10:21:11;;;;;;;;;;;;;;;;;;5089538;28;813;-67
2022/12/02 10:23:54;;;;;;;;;;;;;;;;;;5088482;28;1975;-67
2022/12/02 10:26:19;;;;;;;;;;;;;;;;;;5090332;28;804;-67
2022/12/02 10:28:57;;;;;;;;;;;;;;;;;;5090310;28;904;-66
2022/12/02 10:31:22;;;;;;;;;;;;;;;;;;5089864;28;888;-66
2022/12/02 10:33:55;;;;;;;;;;;;;;;;;;5072009;28;1336;-67
2022/12/02 10:36:33;;;;;;;;;;;;;;;;;;5088472;28;1293;-67
2022/12/02 10:39:17;;;;;;;;;;;;;;;;;;5090595;28;880;-66
2022/12/02 10:41:43;;;;;;;;;;;;;;;;;;5088256;28;1221;-67
2022/12/02 10:44:12;;;;;;;;;;;;;;;;;;5090142;28;1977;-67
2022/12/02 10:46:38;;;;;;;;;;;;;;;;;;5088814;28;1333;-67
2022/12/02 10:49:13;;;;;;;;;;;;;;;;;;5088240;28;1250;-67
2022/12/02 10:51:39;;;;;;;;;;;;;;;;;;5090171;28;788;-67
2022/12/02 10:54:04;;;;;;;;;;;;;;;;;;5090379;28;903;-67
2022/12/02 10:56:29;;;;;;;;;;;;;;;;;;5091346;28;880;-67
2022/12/02 10:58:55;;;;;;;;;;;;;;;;;;5076553;28;1162;-67
2022/12/02 11:01:20;;;;;;;;;;;;;;;;;;5093619;28;1403;-67
2022/12/02 11:03:46;;;;;;;;;;;;;;;;;;5094281;28;1929;-67
2022/12/02 11:06:16;;;;;;;;;;;;;;;;;;5094694;28;840;-67
2022/12/02 11:08:42;;;;;;;;;;;;;;;;;;5094444;28;962;-67
2022/12/02 11:11:08;;;;;;;;;;;;;;;;;;5093282;28;1190;-67
2022/12/02 11:13:52;;;;;;;;;;;;;;;;;;5093864;28;837;-64
2022/12/02 11:16:26;;;;;;;;;;;;;;;;;;5092595;28;1455;-64
2022/12/02 11:18:55;;;;;;;;;;;;;;;;;;5093922;28;880;-64
2022/12/02 11:21:26;;;;;;;;;;;;;;;;;;5091727;28;1327;-64
2022/12/02 11:24:10;;;;;;;;;;;;;;;;;;5094622;28;1906;-65
2022/12/02 11:27:05;;;;;;;;;;;;;;;;;;5093038;28;1257;-67
2022/12/02 11:29:30;;;;;;;;;;;;;;;;;;5084671;28;1267;-66
2022/12/02 11:32:15;;;;;;;;;;;;;;;;;;5094871;28;880;-67
2022/12/02 11:34:46;;;;;;;;;;;;;;;;;;5092613;28;1306;-67
2022/12/02 11:37:27;;;;;;;;;;;;;;;;;;5093816;28;891;-66
2022/12/02 11:39:53;;;;;;;;;;;;;;;;;;5094087;28;828;-67
2022/12/02 11:42:18;;;;;;;;;;;;;;;;;;5092174;28;1222;-67
2022/12/02 11:44:44;;;;;;;;;;;;;;;;;;5093417;28;1909;-67
2022/12/02 11:47:21;;;;;;;;;;;;;;;;;;5075351;28;1252;-67
2022/12/02 11:49:46;;;;;;;;;;;;;;;;;;5092996;28;995;-67
2022/12/02 11:52:15;;;;;;;;;;;;;;;;;;5092679;28;1192;-67
2022/12/02 11:54:53;;;;;;;;;;;;;;;;;;5092305;28;1202;-67
2022/12/02 11:57:40;;;;;;;;;;;;;;;;;;5093566;28;848;-67
2022/12/02 12:00:17;;;;;;;;;;;;;;;;;;5092288;28;1293;-67
2022/12/02 12:02:42;;;;;;;;;;;;;;;;;;5093015;28;1107;-67
2022/12/02 12:05:08;;;;;;;;;;;;;;;;;;5092090;28;1903;-67
2022/12/02 12:07:44;;;;;;;;;;;;;;;;;;5091799;28;1023;-67
2022/12/02 12:10:25;;;;;;;;;;;;;;;;;;5091825;28;1349;-67
2022/12/02 12:13:08;;;;;;;;;;;;;;;;;;5092919;28;880;-67
2022/12/02 12:15:53;;;;;;;;;;;;;;;;;;5092435;28;837;-67
2022/12/02 12:18:37;;;;;;;;;;;;;;;;;;5093072;28;869;-68
2022/12/02 12:21:03;;;;;;;;;;;;;;;;;;5093149;28;813;-67
2022/12/02 12:23:33;;;;;;;;;;;;;;;;;;5090388;28;1953;-67
2022/12/02 12:25:58;;;;;;;;;;;;;;;;;;5092943;28;793;-70
2022/12/02 12:28:23;;;;;;;;;;;;;;;;;;5091029;28;1448;-67
2022/12/02 12:30:49;;;;;;;;;;;;;;;;;;5092672;28;864;-67
2022/12/02 12:33:14;;;;;;;;;;;;;;;;;;5091447;28;1210;-67
2022/12/02 12:35:39;;;;;;;;;;;;;;;;;;5074079;28;1383;-66
2022/12/02 12:38:05;;;;;;;;;;;;;;;;;;5093090;28;1018;-68
2022/12/02 12:40:30;;;;;;;;;;;;;;;;;;5092119;28;844;-68
2022/12/02 12:42:55;;;;;;;;;;;;;;;;;;5091473;28;1186;-68
2022/12/02 12:45:20;;;;;;;;;;;;;;;;;;5091356;28;1910;-66
2022/12/02 12:47:45;;;;;;;;;;;;;;;;;;5090805;28;1260;-68
2022/12/02 12:50:11;;;;;;;;;;;;;;;;;;5093069;28;863;-68
2022/12/02 12:52:36;;;;;;;;;;;;;;;;;;5073619;28;1267;-68
2022/12/02 12:55:02;;;;;;;;;;;;;;;;;;5091820;28;1164;-67
2022/12/02 12:57:27;;;;;;;;;;;;;;;;;;5090485;28;1202;-67
2022/12/02 12:59:53;;;;;;;;;;;;;;;;;;5091417;28;1201;-67
2022/12/02 13:02:18;;;;;;;;;;;;;;;;;;5092852;28;891;-67
2022/12/02 13:04:43;;;;;;;;;;;;;;;;;;5091110;28;1963;-67
2022/12/02 13:07:08;;;;;;;;;;;;;;;;;;5093583;28;868;-67
2022/12/02 13:09:34;;;;;;;;;;;;;;;;;;5091157;28;1277;-67
2022/12/02 13:11:59;;;;;;;;;;;;;;;;;;5091040;28;1250;-67
2022/12/02 13:14:24;;;;;;;;;;;;;;;;;;5090408;28;991;-64
2022/12/02 13:16:49;;;;;;;;;;;;;;;;;;5090265;28;829;-64
2022/12/02 13:19:15;;;;;;;;;;;;;;;;;;5090247;28;836;-64
2022/12/02 13:21:40;;;;;;;;;;;;;;;;;;5091038;28;908;-64
2022/12/02 13:24:06;;;;;;;;;;;;;;;;;;5090531;28;1983;-64
2022/12/02 13:26:31;;;;;;;;;;;;;;;;;;5089990;28;1186;-64
2022/12/02 13:28:56;;;;;;;;;;;;;;;;;;5091706;28;817;-64
2022/12/02 13:31:21;;;;;;;;;;;;;;;;;;5090050;28;892;-65
2022/12/02 13:33:47;;;;;;;;;;;;;;;;;;5090712;28;1063;-64
2022/12/02 13:36:12;;;;;;;;;;;;;;;;;;5091717;28;808;-64
2022/12/02 13:38:38;;;;;;;;;;;;;;;;;;5089608;28;1218;-64
2022/12/02 13:41:03;;;;;;;;;;;;;;;;;;5073537;28;1246;-67
2022/12/02 13:43:28;;;;;;;;;;;;;;;;;;5091021;28;1914;-66
2022/12/02 13:45:53;;;;;;;;;;;;;;;;;;5091898;28;766;-67
2022/12/02 13:48:19;;;;;;;;;;;;;;;;;;5091849;28;916;-64
2022/12/02 13:50:44;;;;;;;;;;;;;;;;;;5089318;28;1254;-67
2022/12/02 13:53:09;;;;;;;;;;;;;;;;;;5091436;28;900;-67
2022/12/02 13:55:34;;;;;;;;;;;;;;;;;;5090352;28;900;-66
2022/12/02 13:58:00;;;;;;;;;;;;;;;;;;5091261;28;880;-67
2022/12/02 14:00:25;;;;;;;;;;;;;;;;;;5072814;28;1280;-66
2022/12/02 14:02:51;;;;;;;;;;;;;;;;;;5087850;28;1076;-67
2022/12/02 14:05:16;;;;;;;;;;;;;;;;;;5087479;28;1901;-67
2022/12/02 14:07:41;;;;;;;;;;;;;;;;;;5087422;28;833;-67
2022/12/02 14:10:07;;;;;;;;;;;;;;;;;;5088545;28;951;-67
2022/12/02 14:12:32;;;;;;;;;;;;;;;;;;5089096;28;1042;-67
2022/12/02 14:14:57;;;;;;;;;;;;;;;;;;5090070;28;816;-67
2022/12/02 14:17:22;;;;;;;;;;;;;;;;;;5088868;28;1162;-67
2022/12/02 14:19:48;;;;;;;;;;;;;;;;;;5090254;28;880;-66
2022/12/02 14:22:13;;;;;;;;;;;;;;;;;;5089479;28;1020;-67
2022/12/02 14:24:38;;;;;;;;;;;;;;;;;;5089547;28;1965;-66
2022/12/02 14:27:03;;;;;;;;;;;;;;;;;;5089680;28;1269;-66
2022/12/02 14:29:29;;;;;;;;;;;;;;;;;;5089879;28;1337;-66
2022/12/02 14:31:54;;;;;;;;;;;;;;;;;;5091209;28;856;-67
2022/12/02 14:34:19;;;;;;;;;;;;;;;;;;5090655;28;884;-67
2022/12/02 14:36:45;;;;;;;;;;;;;;;;;;5091295;28;884;-67
2022/12/02 14:39:10;;;;;;;;;;;;;;;;;;5089802;28;765;-67
2022/12/02 14:41:35;;;;;;;;;;;;;;;;;;5089789;28;955;-67
2022/12/02 14:44:01;;;;;;;;;;;;;;;;;;5089661;28;1906;-67
2022/12/02 14:46:29;;;;;;;;;;;;;;;;;;5089196;28;1006;-67
2022/12/02 14:48:54;;;;;;;;;;;;;;;;;;5089176;28;1174;-67
2022/12/02 14:51:19;;;;;;;;;;;;;;;;;;5089235;28;1424;-67
2022/12/02 14:53:44;;;;;;;;;;;;;;;;;;5089059;28;912;-66
2022/12/02 14:56:10;;;;;;;;;;;;;;;;;;5090533;28;1054;-67
2022/12/02 14:58:35;;;;;;;;;;;;;;;;;;5088318;28;880;-67
2022/12/02 15:01:00;;;;;;;;;;;;;;;;;;5090201;28;872;-64
2022/12/02 15:03:26;;;;;;;;;;;;;;;;;;5088627;28;1890;-64
2022/12/02 15:05:51;;;;;;;;;;;;;;;;;;5089124;28;1054;-64
2022/12/02 15:08:16;;;;;;;;;;;;;;;;;;5088668;28;1345;-64
2022/12/02 15:10:41;;;;;;;;;;;;;;;;;;5089502;28;885;-65
2022/12/02 15:13:07;;;;;;;;;;;;;;;;;;5089221;28;1190;-66
2022/12/02 15:15:33;;;;;;;;;;;;;;;;;;5104553;28;1206;-67
2022/12/02 15:17:58;;;;;;;;;;;;;;;;;;5090746;28;1317;-66
2022/12/02 15:20:25;;;;;;;;;;;;;;;;;;5110929;28;1010;-66
2022/12/02 15:22:50;;;;;;;;;;;;;;;;;;5109177;28;1340;-67
2022/12/02 15:25:15;;;;;;;;;;;;;;;;;;5091769;28;1962;-66
2022/12/02 15:27:41;;;;;;;;;;;;;;;;;;5090630;28;1229;-66
2022/12/02 15:30:06;;;;;;;;;;;;;;;;;;5107545;28;904;-67
2022/12/02 15:32:31;;;;;;;;;;;;;;;;;;5108898;28;809;-66
2022/12/02 15:34:57;;;;;;;;;;;;;;;;;;5107740;28;1162;-66
2022/12/02 15:37:22;;;;;;;;;;;;;;;;;;5107707;28;872;-67
2022/12/02 15:39:47;;;;;;;;;;;;;;;;;;5108282;28;911;-67
2022/12/02 15:42:13;;;;;;;;;;;;;;;;;;5108824;28;1230;-67
2022/12/02 15:44:38;;;;;;;;;;;;;;;;;;5112475;28;1976;-67
2022/12/02 15:47:03;;;;;;;;;;;;;;;;;;5114796;28;856;-66
2022/12/02 15:49:28;;;;;;;;;;;;;;;;;;5113145;28;1131;-67
2022/12/02 15:51:53;;;;;;;;;;;;;;;;;;5113852;28;1069;-66
2022/12/02 15:54:19;;;;;;;;;;;;;;;;;;5113783;28;1070;-66
2022/12/02 15:56:44;;;;;;;;;;;;;;;;;;5112868;28;995;-66
2022/12/02 15:59:09;;;;;;;;;;;;;;;;;;5112160;28;1186;-66
2022/12/02 16:01:34;;;;;;;;;;;;;;;;;;5094542;28;1309;-67
2022/12/02 16:04:00;;;;;;;;;;;;;;;;;;5112358;28;1894;-66
2022/12/02 16:06:25;;;;;;;;;;;;;;;;;;5114110;28;974;-67
2022/12/02 16:08:50;;;;;;;;;;;;;;;;;;5113463;28;832;-66
2022/12/02 16:11:16;;;;;;;;;;;;;;;;;;5113853;28;1081;-67
2022/12/02 16:13:41;;;;;;;;;;;;;;;;;;5113339;28;990;-66
2022/12/02 16:16:06;;;;;;;;;;;;;;;;;;5112477;28;1412;-66
2022/12/02 16:18:32;;;;;;;;;;;;;;;;;;5113715;28;860;-66
2022/12/02 16:20:57;;;;;;;;;;;;;;;;;;5111615;28;1152;-66
2022/12/02 16:23:22;;;;;;;;;;;;;;;;;;5112216;28;1971;-66
2022/12/02 16:25:48;;;;;;;;;;;;;;;;;;5111621;28;1251;-67
2022/12/02 16:28:13;;;;;;;;;;;;;;;;;;5112401;28;1275;-67
2022/12/02 16:30:38;;;;;;;;;;;;;;;;;;5113342;28;875;-67
2022/12/02 16:33:03;;;;;;;;;;;;;;;;;;5112132;28;912;-67
2022/12/02 16:35:29;;;;;;;;;;;;;;;;;;5113656;28;935;-67
2022/12/02 16:37:54;;;;;;;;;;;;;;;;;;5111831;28;730;-67
2022/12/02 16:40:19;;;;;;;;;;;;;;;;;;5113483;28;954;-67
2022/12/02 16:42:45;;;;;;;;;;;;;;;;;;5111705;28;1198;-67
2022/12/02 16:45:10;;;;;;;;;;;;;;;;;;5113700;28;1887;-67
2022/12/02 16:47:36;;;;;;;;;;;;;;;;;;5112116;28;1202;-67
2022/12/02 16:50:01;;;;;;;;;;;;;;;;;;5111509;28;892;-67
2022/12/02 16:52:26;;;;;;;;;;;;;;;;;;5112196;28;772;-67
2022/12/02 16:54:51;;;;;;;;;;;;;;;;;;5094584;28;1420;-67
2022/12/02 16:57:17;;;;;;;;;;;;;;;;;;5114213;28;871;-67
2022/12/02 16:59:43;;;;;;;;;;;;;;;;;;5112565;28;884;-67
2022/12/02 17:02:09;;;;;;;;;;;;;;;;;;5113120;28;1297;-67
2022/12/02 17:04:35;;;;;;;;;;;;;;;;;;5112289;28;1897;-67
2022/12/02 17:07:00;;;;;;;;;;;;;;;;;;5110963;28;1257;-67
2022/12/02 17:09:25;;;;;;;;;;;;;;;;;;5112849;28;911;-67